sensor_id;sensor_type;location;lat;lon;timestamp;P1;durP1;ratioP1;P2;durP2;ratioP2
32146;SDS011;32190;49.112;8.598;2023-02-18T00:02:16;0.65;;;0.65;;
32146;SDS011;32190;49.112;8.598;2023-02-18T00:08:07;0.90;;;0.90;;
32146;SDS011;32190;49.112;8.598;2023-02-18T00:13:58;0.52;;;0.52;;
32146;SDS011;32190;49.112;8.598;2023-02-18T00:19:51;0.63;;;0.63;;
32146;SDS011;32190;49.112;8.598;2023-02-18T00:25:41;0.57;;;0.57;;
32146;SDS011;32190;49.112;8.598;2023-02-18T00:31:32;0.40;;;0.40;;
32146;SDS011;32190;49.112;8.598;2023-02-18T00:37:24;0.50;;;0.50;;
32146;SDS011;32190;49.112;8.598;2023-02-18T00:43:15;0.50;;;0.50;;
32146;SDS011;32190;49.112;8.598;2023-02-18T00:49:06;0.77;;;0.60;;
32146;SDS011;32190;49.112;8.598;2023-02-18T00:54:57;0.75;;;0.75;;
32146;SDS011;32190;49.112;8.598;2023-02-18T01:00:47;0.70;;;0.68;;
32146;SDS011;32190;49.112;8.598;2023-02-18T01:06:38;0.63;;;0.63;;
32146;SDS011;32190;49.112;8.598;2023-02-18T01:12:29;0.60;;;0.60;;
32146;SDS011;32190;49.112;8.598;2023-02-18T01:18:20;0.80;;;0.80;;
32146;SDS011;32190;49.112;8.598;2023-02-18T01:24:11;0.70;;;0.70;;
32146;SDS011;32190;49.112;8.598;2023-02-18T01:30:02;0.63;;;0.63;;
32146;SDS011;32190;49.112;8.598;2023-02-18T01:35:57;0.60;;;0.60;;
32146;SDS011;32190;49.112;8.598;2023-02-18T01:41:47;0.80;;;0.80;;
32146;SDS011;32190;49.112;8.598;2023-02-18T01:47:38;0.80;;;0.70;;
32146;SDS011;32190;49.112;8.598;2023-02-18T01:53:30;0.73;;;0.73;;
32146;SDS011;32190;49.112;8.598;2023-02-18T01:59:32;0.70;;;0.70;;
32146;SDS011;32190;49.112;8.598;2023-02-18T02:05:31;0.90;;;0.90;;
32146;SDS011;32190;49.112;8.598;2023-02-18T02:11:25;0.80;;;0.80;;
32146;SDS011;32190;49.112;8.598;2023-02-18T02:29:47;1.05;;;0.95;;
32146;SDS011;32190;49.112;8.598;2023-02-18T02:36:04;1.10;;;1.00;;
32146;SDS011;32190;49.112;8.598;2023-02-18T02:42:05;0.88;;;0.88;;
32146;SDS011;32190;49.112;8.598;2023-02-18T02:48:37;0.85;;;0.85;;
32146;SDS011;32190;49.112;8.598;2023-02-18T02:54:37;2.10;;;1.15;;
32146;SDS011;32190;49.112;8.598;2023-02-18T03:00:38;1.15;;;1.15;;
32146;SDS011;32190;49.112;8.598;2023-02-18T03:13:06;1.35;;;1.30;;
32146;SDS011;32190;49.112;8.598;2023-02-18T03:19:10;1.23;;;1.23;;
32146;SDS011;32190;49.112;8.598;2023-02-18T03:25:09;1.75;;;1.65;;
32146;SDS011;32190;49.112;8.598;2023-02-18T03:31:04;1.58;;;1.48;;
32146;SDS011;32190;49.112;8.598;2023-02-18T03:37:02;1.35;;;1.27;;
32146;SDS011;32190;49.112;8.598;2023-02-18T03:42:53;1.35;;;1.25;;
32146;SDS011;32190;49.112;8.598;2023-02-18T03:48:45;1.45;;;1.35;;
32146;SDS011;32190;49.112;8.598;2023-02-18T03:54:36;1.50;;;1.40;;
32146;SDS011;32190;49.112;8.598;2023-02-18T04:00:26;1.30;;;1.20;;
32146;SDS011;32190;49.112;8.598;2023-02-18T04:06:17;1.88;;;1.77;;
32146;SDS011;32190;49.112;8.598;2023-02-18T04:12:07;1.10;;;1.10;;
32146;SDS011;32190;49.112;8.598;2023-02-18T04:17:58;1.05;;;1.02;;
32146;SDS011;32190;49.112;8.598;2023-02-18T04:23:49;2.20;;;1.63;;
32146;SDS011;32190;49.112;8.598;2023-02-18T04:29:39;1.17;;;1.00;;
32146;SDS011;32190;49.112;8.598;2023-02-18T04:35:30;1.50;;;1.40;;
32146;SDS011;32190;49.112;8.598;2023-02-18T04:41:20;1.30;;;1.20;;
32146;SDS011;32190;49.112;8.598;2023-02-18T04:47:11;0.90;;;0.90;;
32146;SDS011;32190;49.112;8.598;2023-02-18T04:53:01;1.30;;;1.10;;
32146;SDS011;32190;49.112;8.598;2023-02-18T04:58:52;1.05;;;1.05;;
32146;SDS011;32190;49.112;8.598;2023-02-18T05:04:42;2.00;;;1.00;;
32146;SDS011;32190;49.112;8.598;2023-02-18T05:10:33;1.10;;;1.10;;
32146;SDS011;32190;49.112;8.598;2023-02-18T05:16:23;0.90;;;0.90;;
32146;SDS011;32190;49.112;8.598;2023-02-18T05:22:14;1.13;;;1.02;;
32146;SDS011;32190;49.112;8.598;2023-02-18T05:28:05;1.25;;;1.17;;
32146;SDS011;32190;49.112;8.598;2023-02-18T05:33:55;0.85;;;0.85;;
32146;SDS011;32190;49.112;8.598;2023-02-18T05:39:46;0.98;;;0.98;;
32146;SDS011;32190;49.112;8.598;2023-02-18T05:45:36;0.90;;;0.90;;
32146;SDS011;32190;49.112;8.598;2023-02-18T05:51:27;1.48;;;0.85;;
32146;SDS011;32190;49.112;8.598;2023-02-18T05:57:17;1.35;;;0.95;;
32146;SDS011;32190;49.112;8.598;2023-02-18T06:03:08;1.25;;;1.15;;
32146;SDS011;32190;49.112;8.598;2023-02-18T06:08:58;1.10;;;1.10;;
32146;SDS011;32190;49.112;8.598;2023-02-18T06:14:49;1.42;;;1.10;;
32146;SDS011;32190;49.112;8.598;2023-02-18T06:20:40;1.15;;;1.00;;
32146;SDS011;32190;49.112;8.598;2023-02-18T06:26:30;1.10;;;0.80;;
32146;SDS011;32190;49.112;8.598;2023-02-18T06:32:21;0.70;;;0.70;;
32146;SDS011;32190;49.112;8.598;2023-02-18T06:38:11;0.98;;;0.82;;
32146;SDS011;32190;49.112;8.598;2023-02-18T06:44:02;0.85;;;0.75;;
32146;SDS011;32190;49.112;8.598;2023-02-18T06:49:53;0.90;;;0.90;;
32146;SDS011;32190;49.112;8.598;2023-02-18T06:55:44;1.00;;;0.90;;
32146;SDS011;32190;49.112;8.598;2023-02-18T07:01:35;0.98;;;0.90;;
32146;SDS011;32190;49.112;8.598;2023-02-18T07:07:25;0.82;;;0.82;;
32146;SDS011;32190;49.112;8.598;2023-02-18T07:13:16;1.20;;;1.10;;
32146;SDS011;32190;49.112;8.598;2023-02-18T07:19:06;0.77;;;0.77;;
32146;SDS011;32190;49.112;8.598;2023-02-18T07:24:57;1.15;;;1.15;;
32146;SDS011;32190;49.112;8.598;2023-02-18T07:30:47;0.80;;;0.63;;
32146;SDS011;32190;49.112;8.598;2023-02-18T07:36:38;0.90;;;0.80;;
32146;SDS011;32190;49.112;8.598;2023-02-18T07:42:29;1.00;;;1.00;;
32146;SDS011;32190;49.112;8.598;2023-02-18T07:48:19;0.90;;;0.90;;
32146;SDS011;32190;49.112;8.598;2023-02-18T07:54:10;0.68;;;0.68;;
32146;SDS011;32190;49.112;8.598;2023-02-18T08:00:00;0.95;;;0.90;;
32146;SDS011;32190;49.112;8.598;2023-02-18T08:05:52;0.80;;;0.80;;
32146;SDS011;32190;49.112;8.598;2023-02-18T08:11:43;1.08;;;0.95;;
32146;SDS011;32190;49.112;8.598;2023-02-18T08:17:34;1.50;;;1.10;;
32146;SDS011;32190;49.112;8.598;2023-02-18T08:23:25;0.80;;;0.77;;
32146;SDS011;32190;49.112;8.598;2023-02-18T08:29:15;1.15;;;1.02;;
32146;SDS011;32190;49.112;8.598;2023-02-18T08:35:06;0.85;;;0.80;;
32146;SDS011;32190;49.112;8.598;2023-02-18T08:41:01;1.27;;;0.90;;
32146;SDS011;32190;49.112;8.598;2023-02-18T08:46:53;0.90;;;0.90;;
32146;SDS011;32190;49.112;8.598;2023-02-18T08:52:43;1.35;;;1.20;;
32146;SDS011;32190;49.112;8.598;2023-02-18T08:58:34;0.85;;;0.82;;
32146;SDS011;32190;49.112;8.598;2023-02-18T09:04:26;1.17;;;1.10;;
32146;SDS011;32190;49.112;8.598;2023-02-18T09:10:16;0.73;;;0.73;;
32146;SDS011;32190;49.112;8.598;2023-02-18T09:16:11;0.82;;;0.82;;
32146;SDS011;32190;49.112;8.598;2023-02-18T09:22:09;1.30;;;0.70;;
32146;SDS011;32190;49.112;8.598;2023-02-18T09:27:59;0.70;;;0.70;;
32146;SDS011;32190;49.112;8.598;2023-02-18T09:33:53;0.73;;;0.73;;
32146;SDS011;32190;49.112;8.598;2023-02-18T09:39:46;0.90;;;0.90;;
32146;SDS011;32190;49.112;8.598;2023-02-18T09:45:37;0.70;;;0.70;;
32146;SDS011;32190;49.112;8.598;2023-02-18T09:51:31;0.65;;;0.65;;
32146;SDS011;32190;49.112;8.598;2023-02-18T10:03:19;0.60;;;0.60;;
32146;SDS011;32190;49.112;8.598;2023-02-18T10:09:18;0.68;;;0.68;;
32146;SDS011;32190;49.112;8.598;2023-02-18T10:15:16;1.00;;;0.90;;
32146;SDS011;32190;49.112;8.598;2023-02-18T10:21:15;1.13;;;1.02;;
32146;SDS011;32190;49.112;8.598;2023-02-18T10:27:10;1.00;;;1.00;;
32146;SDS011;32190;49.112;8.598;2023-02-18T10:33:20;1.65;;;0.90;;
32146;SDS011;32190;49.112;8.598;2023-02-18T10:39:22;0.88;;;0.77;;
32146;SDS011;32190;49.112;8.598;2023-02-18T10:51:45;0.90;;;0.90;;
32146;SDS011;32190;49.112;8.598;2023-02-18T10:57:49;0.88;;;0.85;;
32146;SDS011;32190;49.112;8.598;2023-02-18T11:15:52;1.10;;;1.10;;
32146;SDS011;32190;49.112;8.598;2023-02-18T11:21:46;1.20;;;1.10;;
32146;SDS011;32190;49.112;8.598;2023-02-18T11:27:40;1.13;;;1.02;;
32146;SDS011;32190;49.112;8.598;2023-02-18T11:33:37;0.80;;;0.80;;
32146;SDS011;32190;49.112;8.598;2023-02-18T11:39:30;0.95;;;0.95;;
32146;SDS011;32190;49.112;8.598;2023-02-18T11:45:26;1.27;;;1.17;;
32146;SDS011;32190;49.112;8.598;2023-02-18T11:51:23;1.50;;;1.40;;
32146;SDS011;32190;49.112;8.598;2023-02-18T11:57:16;1.40;;;1.30;;
32146;SDS011;32190;49.112;8.598;2023-02-18T12:09:16;0.95;;;0.95;;
32146;SDS011;32190;49.112;8.598;2023-02-18T12:15:08;1.30;;;1.20;;
32146;SDS011;32190;49.112;8.598;2023-02-18T12:45:15;1.10;;;1.00;;
32146;SDS011;32190;49.112;8.598;2023-02-18T13:10:17;1.00;;;0.90;;
32146;SDS011;32190;49.112;8.598;2023-02-18T13:16:28;0.82;;;0.82;;
32146;SDS011;32190;49.112;8.598;2023-02-18T13:22:20;1.10;;;0.88;;
32146;SDS011;32190;49.112;8.598;2023-02-18T13:28:18;1.25;;;1.20;;
32146;SDS011;32190;49.112;8.598;2023-02-18T13:34:36;0.55;;;0.55;;
32146;SDS011;32190;49.112;8.598;2023-02-18T13:40:35;0.60;;;0.60;;
32146;SDS011;32190;49.112;8.598;2023-02-18T13:46:27;0.77;;;0.75;;
32146;SDS011;32190;49.112;8.598;2023-02-18T13:52:18;0.60;;;0.60;;
32146;SDS011;32190;49.112;8.598;2023-02-18T13:58:20;0.40;;;0.40;;
32146;SDS011;32190;49.112;8.598;2023-02-18T14:10:32;0.75;;;0.57;;
32146;SDS011;32190;49.112;8.598;2023-02-18T14:16:25;0.50;;;0.50;;
32146;SDS011;32190;49.112;8.598;2023-02-18T14:22:46;1.00;;;0.90;;
32146;SDS011;32190;49.112;8.598;2023-02-18T14:34:42;1.98;;;0.98;;
32146;SDS011;32190;49.112;8.598;2023-02-18T14:47:08;1.23;;;1.13;;
32146;SDS011;32190;49.112;8.598;2023-02-18T14:53:19;0.98;;;0.95;;
32146;SDS011;32190;49.112;8.598;2023-02-18T14:59:11;0.98;;;0.90;;
32146;SDS011;32190;49.112;8.598;2023-02-18T15:05:17;2.70;;;0.98;;
32146;SDS011;32190;49.112;8.598;2023-02-18T15:11:10;0.80;;;0.80;;
32146;SDS011;32190;49.112;8.598;2023-02-18T15:17:01;0.60;;;0.60;;
32146;SDS011;32190;49.112;8.598;2023-02-18T15:22:53;1.52;;;0.98;;
32146;SDS011;32190;49.112;8.598;2023-02-18T15:35:14;0.88;;;0.88;;
32146;SDS011;32190;49.112;8.598;2023-02-18T15:41:10;0.88;;;0.63;;
32146;SDS011;32190;49.112;8.598;2023-02-18T15:47:05;0.77;;;0.77;;
32146;SDS011;32190;49.112;8.598;2023-02-18T15:52:59;0.68;;;0.68;;
32146;SDS011;32190;49.112;8.598;2023-02-18T16:05:16;0.73;;;0.73;;
32146;SDS011;32190;49.112;8.598;2023-02-18T16:11:08;0.70;;;0.70;;
32146;SDS011;32190;49.112;8.598;2023-02-18T16:17:11;0.68;;;0.68;;
32146;SDS011;32190;49.112;8.598;2023-02-18T16:23:12;1.10;;;0.90;;
32146;SDS011;32190;49.112;8.598;2023-02-18T16:29:06;0.50;;;0.50;;
32146;SDS011;32190;49.112;8.598;2023-02-18T16:35:02;0.85;;;0.77;;
32146;SDS011;32190;49.112;8.598;2023-02-18T16:40:53;0.50;;;0.50;;
32146;SDS011;32190;49.112;8.598;2023-02-18T16:46:44;0.63;;;0.63;;
32146;SDS011;32190;49.112;8.598;2023-02-18T16:52:34;0.90;;;0.90;;
32146;SDS011;32190;49.112;8.598;2023-02-18T16:58:26;1.58;;;0.60;;
32146;SDS011;32190;49.112;8.598;2023-02-18T17:04:17;1.42;;;0.75;;
32146;SDS011;32190;49.112;8.598;2023-02-18T17:10:09;0.85;;;0.85;;
32146;SDS011;32190;49.112;8.598;2023-02-18T17:16:00;0.70;;;0.70;;
32146;SDS011;32190;49.112;8.598;2023-02-18T17:21:50;0.70;;;0.70;;
32146;SDS011;32190;49.112;8.598;2023-02-18T17:27:41;0.60;;;0.60;;
32146;SDS011;32190;49.112;8.598;2023-02-18T17:33:31;0.85;;;0.80;;
32146;SDS011;32190;49.112;8.598;2023-02-18T17:39:22;0.90;;;0.90;;
32146;SDS011;32190;49.112;8.598;2023-02-18T17:57:19;0.80;;;0.80;;
32146;SDS011;32190;49.112;8.598;2023-02-18T18:03:11;0.85;;;0.85;;
32146;SDS011;32190;49.112;8.598;2023-02-18T18:09:03;0.85;;;0.85;;
32146;SDS011;32190;49.112;8.598;2023-02-18T18:14:53;0.90;;;0.70;;
32146;SDS011;32190;49.112;8.598;2023-02-18T18:20:45;0.98;;;0.77;;
32146;SDS011;32190;49.112;8.598;2023-02-18T18:26:37;0.70;;;0.70;;
32146;SDS011;32190;49.112;8.598;2023-02-18T18:32:28;0.90;;;0.73;;
32146;SDS011;32190;49.112;8.598;2023-02-18T18:38:19;1.00;;;0.88;;
32146;SDS011;32190;49.112;8.598;2023-02-18T18:44:11;0.73;;;0.73;;
32146;SDS011;32190;49.112;8.598;2023-02-18T18:50:02;0.88;;;0.80;;
32146;SDS011;32190;49.112;8.598;2023-02-18T18:55:54;0.45;;;0.45;;
32146;SDS011;32190;49.112;8.598;2023-02-18T19:01:50;0.73;;;0.73;;
32146;SDS011;32190;49.112;8.598;2023-02-18T19:07:41;1.90;;;1.00;;
32146;SDS011;32190;49.112;8.598;2023-02-18T19:13:32;0.70;;;0.70;;
32146;SDS011;32190;49.112;8.598;2023-02-18T19:19:24;0.85;;;0.77;;
32146;SDS011;32190;49.112;8.598;2023-02-18T19:25:15;0.68;;;0.68;;
32146;SDS011;32190;49.112;8.598;2023-02-18T19:31:08;1.02;;;1.02;;
32146;SDS011;32190;49.112;8.598;2023-02-18T19:36:59;2.38;;;1.08;;
32146;SDS011;32190;49.112;8.598;2023-02-18T19:42:50;0.90;;;0.90;;
32146;SDS011;32190;49.112;8.598;2023-02-18T19:48:42;1.10;;;1.10;;
32146;SDS011;32190;49.112;8.598;2023-02-18T19:54:32;1.08;;;1.08;;
32146;SDS011;32190;49.112;8.598;2023-02-18T20:00:23;0.98;;;0.98;;
32146;SDS011;32190;49.112;8.598;2023-02-18T20:06:19;0.93;;;0.93;;
32146;SDS011;32190;49.112;8.598;2023-02-18T20:12:10;0.80;;;0.80;;
32146;SDS011;32190;49.112;8.598;2023-02-18T20:18:01;0.90;;;0.90;;
32146;SDS011;32190;49.112;8.598;2023-02-18T20:23:53;1.10;;;1.10;;
32146;SDS011;32190;49.112;8.598;2023-02-18T20:29:44;0.98;;;0.98;;
32146;SDS011;32190;49.112;8.598;2023-02-18T20:35:34;1.23;;;1.08;;
32146;SDS011;32190;49.112;8.598;2023-02-18T20:41:25;1.33;;;1.23;;
32146;SDS011;32190;49.112;8.598;2023-02-18T20:47:15;1.30;;;1.25;;
32146;SDS011;32190;49.112;8.598;2023-02-18T20:53:06;1.10;;;1.10;;
32146;SDS011;32190;49.112;8.598;2023-02-18T20:58:57;1.10;;;1.10;;
32146;SDS011;32190;49.112;8.598;2023-02-18T21:04:47;1.17;;;1.17;;
32146;SDS011;32190;49.112;8.598;2023-02-18T21:10:38;1.33;;;1.33;;
32146;SDS011;32190;49.112;8.598;2023-02-18T21:16:29;1.02;;;1.02;;
32146;SDS011;32190;49.112;8.598;2023-02-18T21:22:27;1.48;;;1.20;;
32146;SDS011;32190;49.112;8.598;2023-02-18T21:28:18;1.40;;;1.25;;
32146;SDS011;32190;49.112;8.598;2023-02-18T21:34:12;1.17;;;1.02;;
32146;SDS011;32190;49.112;8.598;2023-02-18T21:40:04;1.02;;;1.02;;
32146;SDS011;32190;49.112;8.598;2023-02-18T21:46:08;1.20;;;1.20;;
32146;SDS011;32190;49.112;8.598;2023-02-18T21:52:02;1.20;;;1.17;;
32146;SDS011;32190;49.112;8.598;2023-02-18T21:57:59;1.08;;;1.08;;
32146;SDS011;32190;49.112;8.598;2023-02-18T22:03:49;1.10;;;1.00;;
32146;SDS011;32190;49.112;8.598;2023-02-18T22:09:40;1.30;;;1.17;;
32146;SDS011;32190;49.112;8.598;2023-02-18T22:15:30;1.30;;;1.20;;
32146;SDS011;32190;49.112;8.598;2023-02-18T22:21:21;1.25;;;1.20;;
32146;SDS011;32190;49.112;8.598;2023-02-18T22:27:11;1.45;;;1.35;;
32146;SDS011;32190;49.112;8.598;2023-02-18T22:33:02;1.00;;;1.00;;
32146;SDS011;32190;49.112;8.598;2023-02-18T22:38:53;1.05;;;1.05;;
32146;SDS011;32190;49.112;8.598;2023-02-18T22:44:44;1.13;;;1.13;;
32146;SDS011;32190;49.112;8.598;2023-02-18T22:50:34;2.10;;;1.27;;
32146;SDS011;32190;49.112;8.598;2023-02-18T22:56:25;1.10;;;1.02;;
32146;SDS011;32190;49.112;8.598;2023-02-18T23:02:17;1.40;;;1.30;;
32146;SDS011;32190;49.112;8.598;2023-02-18T23:08:10;1.00;;;1.00;;
32146;SDS011;32190;49.112;8.598;2023-02-18T23:14:00;0.77;;;0.77;;
32146;SDS011;32190;49.112;8.598;2023-02-18T23:20:10;1.02;;;1.02;;
32146;SDS011;32190;49.112;8.598;2023-02-18T23:26:00;1.70;;;1.60;;
32146;SDS011;32190;49.112;8.598;2023-02-18T23:31:51;1.45;;;1.35;;
32146;SDS011;32190;49.112;8.598;2023-02-18T23:37:41;1.00;;;1.00;;
32146;SDS011;32190;49.112;8.598;2023-02-18T23:43:51;1.17;;;1.17;;
32146;SDS011;32190;49.112;8.598;2023-02-18T23:49:41;1.33;;;1.23;;
32146;SDS011;32190;49.112;8.598;2023-02-18T23:55:32;1.02;;;1.02;;
